01:55
Airports
History
Links
Donate
Help keep this website running!
PayPal
Bitcoin
This page is community maintained. The information is intended for PC simulator navigation or reference.
Always use approved charts for navigation.
K16
Becks GroveUpdated 21-May-2014
Becks Grove (K16)
Rome, New York, United States (13308)
(U)
Lat/Lng:43° 15' 3.05" N / 75° 36' 15.7" W
43.250847 / -75.604361
Elevation:450'ft / 137mMSL
Declination:W013°
ID / ICAO:K16
FAA:K16
Runways:1
Longest:(06-24) 917.3m / 3,010ft Asphalt
Distance To
Airport ID:
Airport Radio Frequencies
CTAF/UNICOM: 122.8
Nearby VORs <50NM
Nearby NDBs
Nearby WeatherUpdated 08-17-17 00:53 GMT
Nearby weather at KRME, Griffiss Intl located 10.0 nautical miles from K16
Altimeter: 30.07
Visibility: 10.0 statute miles
Wind: 0 knots (000°)
Temp: 18°c 64°f
Humidity: 68.0%

METAR: KRME 170053Z 00000KT 10SM CLR 18/12 A3007 RMK AO2 SLP179 T01780117

(Powered by phpweather)
Runway 06 / 24
Dimensions:917.3 x 7m 3010' x 23'ft
Surface:Asphalt
Runway 06 [A]Runway 24 [B]
Heading:059°MH  046°TH239°MH   226°TH
Lat:
Lng:
43° 15' 21.17"N
75° 36' 26.62"W
43° 15' 41.49"N
75° 35' 57.11"W
User Notes and Comments
Google Map
Nearby Airports
(R) Curtis 7.9 NM
NY62 SSE 156°
(U) Kamp 8.3 NM
1B4 SSW 195°
(C) Griffiss Intl 10.0 NM
KRME (WX) E 96°
(R) Stanwix Heights 10.9 NM
5NY4 SE 126°
(R) Valenty Mierek 11.1 NM
NY59 NNE 32°
4 Sophies Choice 13.2 NM
7NY9 SE 138°
(U) [X] ONEIDA CO 13.3 NM
KUCA ESE 122°
VFR Chart
Flight Planning at SkyVector.com